createdAt,value
2018-08-10T00:01:20.971Z,79.45
2018-08-10T00:03:56.787Z,78.99
2018-08-10T00:06:32.636Z,79.17
2018-08-10T00:09:10.541Z,80.35
2018-08-10T00:11:46.418Z,80.43
2018-08-10T00:14:22.297Z,79.35
2018-08-10T00:16:58.042Z,78.98
2018-08-10T00:19:33.812Z,78.54
2018-08-10T00:22:09.685Z,78.76
2018-08-10T00:24:45.513Z,79.54
2018-08-10T00:27:21.256Z,77.77
2018-08-10T00:29:57.083Z,77.21
2018-08-10T00:32:33.003Z,78.10
2018-08-10T00:35:10.235Z,76.15
2018-08-10T00:37:47.180Z,75.95
2018-08-10T00:40:23.892Z,75.61
2018-08-10T00:42:59.779Z,74.95
2018-08-10T00:45:35.690Z,74.74
2018-08-10T00:48:11.439Z,76.55
2018-08-10T00:50:47.226Z,76.84
2018-08-10T00:53:22.989Z,77.92
2018-08-10T00:55:58.897Z,79.76
2018-08-10T00:58:34.673Z,80.75
2018-08-10T01:01:10.540Z,80.70
2018-08-10T01:03:46.798Z,80.33
2018-08-10T01:06:22.553Z,82.24
2018-08-10T01:08:58.832Z,80.92
2018-08-10T01:11:34.476Z,80.04
2018-08-10T01:14:10.370Z,78.71
2018-08-10T01:16:46.156Z,78.45
2018-08-10T01:19:21.917Z,79.17
2018-08-10T01:21:58.190Z,79.39
2018-08-10T01:24:34.222Z,79.02
2018-08-10T01:27:15.065Z,79.17
2018-08-10T01:29:50.805Z,79.60
2018-08-10T01:32:30.128Z,79.05
2018-08-10T01:35:07.078Z,79.15
2018-08-10T01:37:42.957Z,81.28
2018-08-10T01:40:19.266Z,81.96
2018-08-10T01:42:55.179Z,80.15
2018-08-10T01:45:31.008Z,79.57
2018-08-10T01:48:07.437Z,78.83
2018-08-10T01:50:43.262Z,78.92
2018-08-10T01:53:19.040Z,79.11
2018-08-10T01:55:54.833Z,78.86
2018-08-10T01:58:30.705Z,79.79
2018-08-10T02:01:06.669Z,81.75
2018-08-10T02:03:42.564Z,82.88
2018-08-10T02:06:18.382Z,85.87
2018-08-10T02:08:54.174Z,85.92
2018-08-10T02:11:29.970Z,84.29
2018-08-10T02:14:06.154Z,83.17
2018-08-10T02:16:42.141Z,83.24
2018-08-10T02:19:18.077Z,83.38
2018-08-10T02:21:54.232Z,82.43
2018-08-10T02:24:30.134Z,82.71
2018-08-10T02:27:06.030Z,81.88
2018-08-10T02:29:42.665Z,81.71
2018-08-10T02:32:18.242Z,82.23
2018-08-10T02:34:54.181Z,82.05
2018-08-10T02:37:30.334Z,82.70
2018-08-10T02:40:08.145Z,83.06
2018-08-10T02:42:45.068Z,83.45
2018-08-10T02:45:21.465Z,83.80
2018-08-10T02:47:57.406Z,83.03
2018-08-10T02:50:33.512Z,84.45
2018-08-10T02:53:09.637Z,86.53
2018-08-10T02:55:45.390Z,88.61
2018-08-10T02:58:22.024Z,88.25
2018-08-10T03:00:57.998Z,88.74
2018-08-10T03:03:33.750Z,88.48
2018-08-10T03:06:09.538Z,87.47
2018-08-10T03:08:45.448Z,86.38
2018-08-10T03:11:21.521Z,87.26
2018-08-10T03:13:57.836Z,86.59
2018-08-10T03:16:33.695Z,85.62
2018-08-10T03:19:09.357Z,84.12
2018-08-10T03:21:45.185Z,82.77
2018-08-10T03:24:21.029Z,81.91
2018-08-10T03:26:57.055Z,81.83
2018-08-10T03:29:32.836Z,83.50
2018-08-10T03:32:09.068Z,85.54
2018-08-10T03:34:44.790Z,86.49
2018-08-10T03:37:20.612Z,87.61
2018-08-10T03:39:56.752Z,86.63
2018-08-10T03:42:32.491Z,86.34
2018-08-10T03:45:08.632Z,85.78
2018-08-10T03:47:44.467Z,84.49
2018-08-10T03:50:20.213Z,83.40
2018-08-10T03:52:56.401Z,81.93
2018-08-10T03:55:32.178Z,80.31
2018-08-10T03:58:08.043Z,79.71
2018-08-10T04:00:43.827Z,79.87
2018-08-10T04:03:19.720Z,82.09
2018-08-10T04:05:55.816Z,81.36
2018-08-10T04:08:31.556Z,82.64
2018-08-10T04:11:07.792Z,82.76
2018-08-10T04:13:43.678Z,82.31
2018-08-10T04:16:19.287Z,83.77
2018-08-10T04:18:55.520Z,84.20
2018-08-10T04:21:31.149Z,82.45
2018-08-10T04:24:07.080Z,81.67
2018-08-10T04:26:42.872Z,81.08
2018-08-10T04:29:18.594Z,81.74
2018-08-10T04:31:54.342Z,81.87
2018-08-10T04:34:30.101Z,81.32
2018-08-10T04:37:05.950Z,82.47
2018-08-10T04:39:41.833Z,82.42
2018-08-10T04:42:17.806Z,82.15
2018-08-10T04:44:53.604Z,80.99
2018-08-10T04:47:29.351Z,80.64
2018-08-10T04:50:05.376Z,80.48
2018-08-10T04:52:41.613Z,79.96
2018-08-10T04:55:17.437Z,78.53
2018-08-10T04:57:53.203Z,76.81
2018-08-10T05:00:29.765Z,75.15
2018-08-10T05:03:05.717Z,74.32
2018-08-10T05:05:41.442Z,73.98
2018-08-10T05:08:17.321Z,71.13
2018-08-10T05:10:53.048Z,70.10
2018-08-10T05:13:28.915Z,68.44
2018-08-10T05:16:04.834Z,69.70
2018-08-10T05:18:40.737Z,69.02
2018-08-10T05:21:16.449Z,69.86
2018-08-10T05:23:52.205Z,67.52
2018-08-10T05:26:28.227Z,67.73
2018-08-10T05:29:04.066Z,68.21
2018-08-10T05:31:39.965Z,66.93
2018-08-10T05:34:15.836Z,68.16
2018-08-10T05:36:51.670Z,68.08
2018-08-10T05:39:27.584Z,65.84
2018-08-10T05:42:03.517Z,63.70
2018-08-10T05:44:39.238Z,62.83
2018-08-10T05:47:15.128Z,63.68
2018-08-10T05:49:51.114Z,62.44
2018-08-10T05:52:27.082Z,63.45
2018-08-10T05:55:03.412Z,63.94
2018-08-10T05:57:39.748Z,63.43
2018-08-10T06:00:15.640Z,62.65
2018-08-10T06:02:51.384Z,61.54
2018-08-10T06:05:27.139Z,58.82
2018-08-10T06:08:03.033Z,57.77
2018-08-10T06:10:39.409Z,55.22
2018-08-10T06:13:15.353Z,55.62
2018-08-10T06:15:51.444Z,54.01
2018-08-10T06:18:22.453Z,55.42
2018-08-10T06:20:53.246Z,54.57
2018-08-10T06:23:24.757Z,54.85
2018-08-10T06:25:55.529Z,54.67
2018-08-10T06:28:26.384Z,53.40
2018-08-10T06:30:57.180Z,52.68
2018-08-10T06:33:27.986Z,51.25
2018-08-10T06:35:58.784Z,51.22
2018-08-10T06:38:29.617Z,50.40
2018-08-10T06:41:00.399Z,50.18
2018-08-10T06:43:31.281Z,49.78
2018-08-10T06:46:02.322Z,48.25
2018-08-10T06:48:33.313Z,48.59
2018-08-10T06:51:04.149Z,50.51
2018-08-10T06:53:35.165Z,50.51
2018-08-10T06:56:06.397Z,50.38
2018-08-10T06:58:37.567Z,50.80
2018-08-10T07:01:08.534Z,50.05
2018-08-10T07:03:39.471Z,49.79
2018-08-10T07:06:10.254Z,48.98
2018-08-10T07:08:41.053Z,47.40
2018-08-10T07:11:11.822Z,47.21
2018-08-10T07:13:43.148Z,46.61
2018-08-10T07:16:14.208Z,46.32
2018-08-10T07:18:45.156Z,47.45
2018-08-10T07:21:16.099Z,45.42
2018-08-10T07:23:46.921Z,46.19
2018-08-10T07:26:17.678Z,45.36
2018-08-10T07:28:49.013Z,43.90
2018-08-10T07:31:20.238Z,43.99
2018-08-10T07:33:51.083Z,43.98
2018-08-10T07:36:21.900Z,45.15
2018-08-10T07:38:52.713Z,44.45
2018-08-10T07:41:23.502Z,43.71
2018-08-10T07:43:54.340Z,44.13
2018-08-10T07:46:25.166Z,44.06
2018-08-10T07:48:56.205Z,41.93
2018-08-10T07:51:26.959Z,41.48
2018-08-10T07:53:57.753Z,41.49
2018-08-10T07:56:28.513Z,41.23
2018-08-10T07:58:59.443Z,40.27
2018-08-10T08:01:30.435Z,40.36
2018-08-10T08:04:01.251Z,40.39
2018-08-10T08:06:32.081Z,39.91
2018-08-10T08:09:02.918Z,39.50
2018-08-10T08:11:33.718Z,39.08
2018-08-10T08:14:04.773Z,38.78
2018-08-10T08:16:35.897Z,37.77
2018-08-10T08:19:06.766Z,36.97
2018-08-10T08:21:37.658Z,36.14
2018-08-10T08:24:08.896Z,34.80
2018-08-10T08:26:39.768Z,34.33
2018-08-10T08:29:10.681Z,34.53
2018-08-10T08:31:41.440Z,35.58
2018-08-10T08:34:12.301Z,36.52
2018-08-10T08:36:43.080Z,35.29
2018-08-10T08:39:28.465Z,37.02
2018-08-10T08:41:59.305Z,37.58
2018-08-10T08:44:55.818Z,36.90
2018-08-10T08:47:26.597Z,35.37
2018-08-10T08:49:57.443Z,36.48
2018-08-10T08:52:28.377Z,34.53
2018-08-10T08:55:11.793Z,36.70
2018-08-10T08:57:42.579Z,35.91
2018-08-10T09:00:15.494Z,37.04
2018-08-10T09:02:46.355Z,38.05
2018-08-10T09:05:17.926Z,37.19
2018-08-10T09:07:48.778Z,36.38
2018-08-10T09:10:20.470Z,35.90
2018-08-10T09:12:51.248Z,34.61
2018-08-10T09:15:22.961Z,35.42
2018-08-10T09:17:53.821Z,35.28
2018-08-10T09:20:24.656Z,33.08
2018-08-10T09:22:55.453Z,33.75
2018-08-10T09:25:26.265Z,33.35
2018-08-10T09:27:57.077Z,33.45
2018-08-10T09:30:28.066Z,31.92
2018-08-10T09:32:58.864Z,33.42
2018-08-10T09:35:29.683Z,34.26
2018-08-10T09:38:00.551Z,34.16
2018-08-10T09:40:31.453Z,34.18
2018-08-10T09:43:07.742Z,32.78
2018-08-10T09:45:38.598Z,31.95
2018-08-10T09:48:09.444Z,31.30
2018-08-10T09:50:40.255Z,30.79
2018-08-10T09:53:11.090Z,29.75
2018-08-10T09:55:41.890Z,29.52
2018-08-10T09:58:16.289Z,30.86
2018-08-10T10:00:52.342Z,27.96
2018-08-10T10:03:24.877Z,28.64
2018-08-10T10:05:59.524Z,28.36
2018-08-10T10:08:30.324Z,28.24
2018-08-10T10:11:01.177Z,28.68
2018-08-10T10:13:31.981Z,28.44
2018-08-10T10:16:02.859Z,28.57
2018-08-10T10:18:33.748Z,26.26
2018-08-10T10:21:04.698Z,27.42
2018-08-10T10:23:35.669Z,28.13
2018-08-10T10:26:06.607Z,27.65
2018-08-10T10:28:37.763Z,27.28
2018-08-10T10:31:08.796Z,26.69
2018-08-10T10:33:39.619Z,25.74
2018-08-10T10:36:10.478Z,24.60
2018-08-10T10:38:41.304Z,25.83
2018-08-10T10:41:12.199Z,25.53
2018-08-10T10:43:43.008Z,27.82
2018-08-10T10:46:13.857Z,28.53
2018-08-10T10:48:44.632Z,28.42
2018-08-10T10:51:16.091Z,28.45
2018-08-10T10:53:47.284Z,27.42
2018-08-10T10:56:18.506Z,27.88
2018-08-10T10:58:49.726Z,28.22
2018-08-10T11:01:20.604Z,28.58
2018-08-10T11:03:51.390Z,27.57
2018-08-10T11:06:22.305Z,27.35
2018-08-10T11:08:53.345Z,28.06
2018-08-10T11:11:24.195Z,27.76
2018-08-10T11:13:54.991Z,27.55
2018-08-10T11:16:25.859Z,27.30
2018-08-10T11:18:56.715Z,25.54
2018-08-10T11:21:27.554Z,26.99
2018-08-10T11:23:58.485Z,26.00
2018-08-10T11:26:29.569Z,26.77
2018-08-10T11:29:01.098Z,25.60
2018-08-10T11:31:31.982Z,26.39
2018-08-10T11:34:02.787Z,24.04
2018-08-10T11:36:34.317Z,24.09
2018-08-10T11:39:08.059Z,23.41
2018-08-10T11:41:39.512Z,27.03
2018-08-10T11:44:10.646Z,25.76
2018-08-10T11:46:41.929Z,24.92
2018-08-10T11:49:12.701Z,25.63
2018-08-10T11:51:43.573Z,24.55
2018-08-10T11:54:14.344Z,24.62
2018-08-10T11:56:45.174Z,24.18
2018-08-10T11:59:15.959Z,22.81
2018-08-10T12:01:46.935Z,22.02
2018-08-10T12:04:18.000Z,22.63
2018-08-10T12:06:51.939Z,22.82
2018-08-10T12:09:22.735Z,24.16
2018-08-10T12:11:53.601Z,25.30
2018-08-10T12:14:24.368Z,24.66
2018-08-10T12:16:55.227Z,24.16
2018-08-10T12:19:26.900Z,24.46
2018-08-10T12:21:57.770Z,24.36
2018-08-10T12:24:28.547Z,22.17
2018-08-10T12:26:59.389Z,24.14
2018-08-10T12:29:30.552Z,24.25
2018-08-10T12:32:05.053Z,25.15
2018-08-10T12:34:35.841Z,23.15
2018-08-10T12:37:07.925Z,24.50
2018-08-10T12:39:38.729Z,23.55
2018-08-10T12:42:09.965Z,22.90
2018-08-10T12:44:40.749Z,22.36
2018-08-10T12:47:11.890Z,21.14
2018-08-10T12:49:42.667Z,20.66
2018-08-10T12:52:13.483Z,23.15
2018-08-10T12:54:44.336Z,22.26
2018-08-10T12:57:15.151Z,22.59
2018-08-10T12:59:45.978Z,24.23
2018-08-10T13:02:18.460Z,24.27
2018-08-10T13:04:49.274Z,23.04
2018-08-10T13:07:20.101Z,22.59
2018-08-10T13:09:51.118Z,22.20
2018-08-10T13:12:21.959Z,22.19
2018-08-10T13:14:52.788Z,22.75
2018-08-10T13:17:23.684Z,22.40
2018-08-10T13:19:54.567Z,23.04
2018-08-10T13:22:29.193Z,22.86
2018-08-10T13:25:00.026Z,20.24
2018-08-10T13:27:30.845Z,21.56
2018-08-10T13:30:01.671Z,22.96
2018-08-10T13:32:32.548Z,24.05
2018-08-10T13:35:03.898Z,23.09
2018-08-10T13:37:34.827Z,21.54
2018-08-10T13:40:06.206Z,22.70
2018-08-10T13:42:37.053Z,22.19
2018-08-10T13:45:10.127Z,22.97
2018-08-10T13:47:41.702Z,22.36
2018-08-10T13:50:15.216Z,22.69
2018-08-10T13:52:46.350Z,23.26
2018-08-10T13:55:18.610Z,22.60
2018-08-10T13:57:49.970Z,22.01
2018-08-10T14:00:22.822Z,22.41
2018-08-10T14:02:55.046Z,22.82
2018-08-10T14:05:25.985Z,21.76
2018-08-10T14:07:56.816Z,21.74
2018-08-10T14:10:27.618Z,21.38
2018-08-10T14:12:58.445Z,21.33
2018-08-10T14:15:29.245Z,21.63
2018-08-10T14:18:00.171Z,20.93
2018-08-10T14:20:31.393Z,20.77
2018-08-10T14:23:02.206Z,19.51
2018-08-10T14:25:32.993Z,20.50
2018-08-10T14:28:03.932Z,19.28
2018-08-10T14:30:35.944Z,18.97
2018-08-10T14:33:07.053Z,19.02
2018-08-10T14:35:37.918Z,18.96
2018-08-10T14:38:08.877Z,18.39
2018-08-10T14:40:39.676Z,18.02
2018-08-10T14:43:10.501Z,17.18
2018-08-10T14:45:41.275Z,17.26
2018-08-10T14:48:12.183Z,17.64
2018-08-10T14:50:43.328Z,16.65
2018-08-10T14:53:14.200Z,17.10
2018-08-10T14:55:45.012Z,17.52
2018-08-10T14:58:15.831Z,17.17
2018-08-10T15:00:47.690Z,17.32
2018-08-10T15:03:18.774Z,18.02
2018-08-10T15:05:49.614Z,17.77
2018-08-10T15:08:20.466Z,17.46
2018-08-10T15:10:51.312Z,17.11
2018-08-10T15:13:22.168Z,16.51
2018-08-10T15:15:53.136Z,16.69
2018-08-10T15:18:24.077Z,18.22
2018-08-10T15:20:55.349Z,17.98
2018-08-10T15:23:26.280Z,19.90
2018-08-10T15:25:57.192Z,22.82
2018-08-10T15:28:30.967Z,24.50
2018-08-10T15:31:01.791Z,25.75
2018-08-10T15:33:32.754Z,26.26
2018-08-10T15:36:03.611Z,27.30
2018-08-10T15:38:34.458Z,27.55
2018-08-10T15:41:05.264Z,27.59
2018-08-10T15:43:36.171Z,28.74
2018-08-10T15:46:07.057Z,28.52
2018-08-10T15:48:37.940Z,28.67
2018-08-10T15:51:09.134Z,28.43
2018-08-10T15:53:39.990Z,28.38
2018-08-10T15:56:10.840Z,28.82
2018-08-10T15:58:42.380Z,28.28
2018-08-10T16:01:13.257Z,28.24
2018-08-10T16:03:44.521Z,29.42
2018-08-10T16:06:16.917Z,29.72
2018-08-10T16:08:47.720Z,29.37
2018-08-10T16:11:18.578Z,29.99
2018-08-10T16:13:49.426Z,29.88
2018-08-10T16:16:20.244Z,30.56
2018-08-10T16:18:51.738Z,31.86
2018-08-10T16:21:22.604Z,31.37
2018-08-10T16:23:53.477Z,31.59
2018-08-10T16:26:24.281Z,31.81
2018-08-10T16:28:55.499Z,32.16
2018-08-10T16:31:26.355Z,32.71
2018-08-10T16:33:57.308Z,32.86
2018-08-10T16:36:28.093Z,33.67
2018-08-10T16:38:58.955Z,33.78
2018-08-10T16:41:29.759Z,34.62
2018-08-10T16:44:00.599Z,34.13
2018-08-10T16:46:31.392Z,34.27
2018-08-10T16:49:02.245Z,35.02
2018-08-10T16:51:33.012Z,35.36
2018-08-10T16:54:03.894Z,35.88
2018-08-10T16:56:35.054Z,36.19
2018-08-10T16:59:05.952Z,36.07
2018-08-10T17:01:36.732Z,36.36
2018-08-10T17:04:07.981Z,36.44
2018-08-10T17:06:39.405Z,38.25
2018-08-10T17:09:13.394Z,37.49
2018-08-10T17:11:44.209Z,37.71
2018-08-10T17:14:18.149Z,38.14
2018-08-10T17:16:49.349Z,39.11
2018-08-10T17:19:50.977Z,38.64
2018-08-10T17:22:34.137Z,38.45
2018-08-10T17:25:05.958Z,38.85
2018-08-10T17:27:36.832Z,39.49
2018-08-10T17:30:10.289Z,40.95
2018-08-10T17:32:41.070Z,41.17
2018-08-10T17:35:13.549Z,41.91
2018-08-10T17:37:45.497Z,42.56
2018-08-10T17:40:16.503Z,42.71
2018-08-10T17:42:47.407Z,42.24
2018-08-10T17:45:18.719Z,42.59
2018-08-10T17:47:49.507Z,42.97
2018-08-10T17:50:21.531Z,43.15
2018-08-10T17:52:58.204Z,43.35
2018-08-10T17:55:29.700Z,44.13
2018-08-10T17:58:02.661Z,43.57
2018-08-10T18:00:34.256Z,44.58
2018-08-10T18:03:05.212Z,45.29
2018-08-10T18:05:36.117Z,46.10
2018-08-10T18:08:07.071Z,46.35
2018-08-10T18:10:38.059Z,46.51
2018-08-10T18:13:09.007Z,46.89
2018-08-10T18:15:40.676Z,46.78
2018-08-10T18:18:11.506Z,47.03
2018-08-10T18:20:42.524Z,46.95
2018-08-10T18:23:18.496Z,47.24
2018-08-10T18:25:51.610Z,46.94
2018-08-10T18:28:26.780Z,47.79
2018-08-10T18:30:57.679Z,47.18
2018-08-10T18:33:28.458Z,48.04
2018-08-10T18:35:59.655Z,48.74
2018-08-10T18:38:32.229Z,49.02
2018-08-10T18:41:04.948Z,48.90
2018-08-10T18:43:36.341Z,48.06
2018-08-10T18:46:07.711Z,49.42
2018-08-10T18:48:38.784Z,48.38
2018-08-10T18:51:12.971Z,49.07
2018-08-10T18:53:48.933Z,50.33
2018-08-10T18:56:20.434Z,50.26
2018-08-10T18:58:51.477Z,52.32
2018-08-10T19:01:22.673Z,51.60
2018-08-10T19:03:53.638Z,50.56
2018-08-10T19:06:24.535Z,54.78
2018-08-10T19:08:57.597Z,52.29
2018-08-10T19:11:28.496Z,50.90
2018-08-10T19:15:23.552Z,52.24
2018-08-10T19:17:54.481Z,52.23
2018-08-10T19:20:25.282Z,52.91
2018-08-10T19:22:56.205Z,52.58
2018-08-10T19:25:27.152Z,55.28
2018-08-10T19:27:58.061Z,53.88
2018-08-10T19:30:29.508Z,55.96
2018-08-10T19:33:00.629Z,55.16
2018-08-10T19:35:31.455Z,59.10
2018-08-10T19:38:02.605Z,57.99
2018-08-10T19:40:39.282Z,58.29
2018-08-10T19:43:10.116Z,59.36
2018-08-10T19:45:41.087Z,57.94
2018-08-10T19:48:12.382Z,57.73
2018-08-10T19:50:43.205Z,55.37
2018-08-10T19:53:14.429Z,54.96
2018-08-10T19:55:45.248Z,57.10
2018-08-10T19:58:16.175Z,56.24
2018-08-10T20:00:51.925Z,54.48
2018-08-10T20:03:27.897Z,55.80
2018-08-10T20:06:03.669Z,56.51
2018-08-10T20:08:39.658Z,57.19
2018-08-10T20:11:15.410Z,59.25
2018-08-10T20:13:51.393Z,59.52
2018-08-10T20:16:27.198Z,61.25
2018-08-10T20:19:03.022Z,61.27
2018-08-10T20:21:38.837Z,61.56
2018-08-10T20:24:14.835Z,60.54
2018-08-10T20:26:50.721Z,59.38
2018-08-10T20:29:27.073Z,61.88
2018-08-10T20:32:02.858Z,61.47
2018-08-10T20:34:39.337Z,61.08
2018-08-10T20:37:15.146Z,61.81
2018-08-10T20:39:50.916Z,61.85
2018-08-10T20:42:26.849Z,61.91
2018-08-10T20:45:03.196Z,62.12
2018-08-10T20:47:39.564Z,62.46
2018-08-10T20:50:20.156Z,62.82
2018-08-10T20:52:56.156Z,63.23
2018-08-10T20:55:33.438Z,63.12
2018-08-10T20:58:09.404Z,63.27
2018-08-10T21:00:45.072Z,64.25
2018-08-10T21:03:23.415Z,65.37
2018-08-10T21:05:59.233Z,67.75
2018-08-10T21:08:35.115Z,67.99
2018-08-10T21:11:10.946Z,67.91
2018-08-10T21:13:46.737Z,68.85
2018-08-10T21:16:22.666Z,69.11
2018-08-10T21:18:58.433Z,69.81
2018-08-10T21:21:34.348Z,69.12
2018-08-10T21:24:10.171Z,68.54
2018-08-10T21:26:46.249Z,66.93
2018-08-10T21:29:22.000Z,67.92
2018-08-10T21:31:58.032Z,68.55
2018-08-10T21:34:33.967Z,68.67
2018-08-10T21:37:09.877Z,67.52
2018-08-10T21:39:45.623Z,66.98
2018-08-10T21:42:21.564Z,67.99
2018-08-10T21:44:57.678Z,69.97
2018-08-10T21:47:34.008Z,69.97
2018-08-10T21:50:13.877Z,69.70
2018-08-10T21:52:49.679Z,69.91
2018-08-10T21:55:25.929Z,69.98
2018-08-10T21:58:01.812Z,70.15
2018-08-10T22:00:57.714Z,69.87
2018-08-10T22:03:33.626Z,70.21
2018-08-10T22:06:09.386Z,70.35
2018-08-10T22:08:45.295Z,70.65
2018-08-10T22:11:21.139Z,71.04
2018-08-10T22:14:02.636Z,71.67
2018-08-10T22:16:43.542Z,72.21
2018-08-10T22:19:20.159Z,72.62
2018-08-10T22:21:55.915Z,73.48
2018-08-10T22:24:31.698Z,73.96
2018-08-10T22:27:07.948Z,73.59
2018-08-10T22:29:43.716Z,74.08
2018-08-10T22:32:19.809Z,74.31
2018-08-10T22:34:55.848Z,74.27
2018-08-10T22:37:31.861Z,74.37
2018-08-10T22:40:08.249Z,74.55
2018-08-10T22:42:44.020Z,74.31
2018-08-10T22:45:20.286Z,73.35
2018-08-10T22:47:56.317Z,73.02
2018-08-10T22:50:33.524Z,73.38
2018-08-10T22:53:09.269Z,73.78
2018-08-10T22:55:45.045Z,74.81
2018-08-10T22:58:20.931Z,75.26
2018-08-10T23:00:56.909Z,75.93
2018-08-10T23:03:33.079Z,76.60
2018-08-10T23:06:09.602Z,76.73
2018-08-10T23:08:45.460Z,76.30
2018-08-10T23:11:21.791Z,76.26
2018-08-10T23:13:57.675Z,75.07
2018-08-10T23:16:33.665Z,76.17
2018-08-10T23:19:09.500Z,78.02
2018-08-10T23:21:45.485Z,78.20
2018-08-10T23:24:21.241Z,78.10
2018-08-10T23:26:57.234Z,78.08
2018-08-10T23:29:33.112Z,77.83
2018-08-10T23:32:08.959Z,77.95
2018-08-10T23:34:44.698Z,78.09
2018-08-10T23:37:20.886Z,79.11
2018-08-10T23:39:56.685Z,78.41
2018-08-10T23:42:32.841Z,78.56
2018-08-10T23:45:10.961Z,79.45
2018-08-10T23:47:46.935Z,79.88
2018-08-10T23:50:22.766Z,80.39
2018-08-10T23:52:58.743Z,79.73
2018-08-10T23:55:34.474Z,79.75
2018-08-10T23:58:10.490Z,79.52
